createdAt,value
2023-04-20T00:01:05.292Z,13.98
2023-04-20T00:06:01.275Z,12.32
2023-04-20T00:10:55.903Z,13.32
2023-04-20T00:15:49.038Z,13.38
2023-04-20T00:20:42.346Z,13.35
2023-04-20T00:25:35.652Z,13.20
2023-04-20T00:30:30.370Z,13.13
2023-04-20T00:35:24.150Z,14.68
2023-04-20T00:40:18.129Z,15.23
2023-04-20T00:45:11.815Z,20.48
2023-04-20T00:50:07.839Z,25.40
2023-04-20T00:55:01.945Z,21.42
2023-04-20T00:59:55.369Z,22.38
2023-04-20T01:04:49.073Z,20.17
2023-04-20T01:09:49.600Z,15.23
2023-04-20T01:14:42.879Z,15.20
2023-04-20T01:19:36.108Z,15.40
2023-04-20T01:24:30.707Z,14.10
2023-04-20T01:29:25.461Z,14.73
2023-04-20T01:34:18.770Z,15.23
2023-04-20T01:39:14.360Z,16.13
2023-04-20T01:44:09.014Z,23.13
2023-04-20T01:49:04.255Z,16.33
2023-04-20T01:53:57.444Z,14.85
2023-04-20T01:58:50.718Z,15.45
2023-04-20T02:03:45.687Z,14.75
2023-04-20T02:08:39.668Z,14.02
2023-04-20T02:13:34.258Z,14.60
2023-04-20T02:18:27.800Z,13.82
2023-04-20T02:23:22.538Z,14.10
2023-04-20T02:28:15.945Z,14.50
2023-04-20T02:33:09.168Z,13.65
2023-04-20T02:38:02.495Z,14.57
2023-04-20T02:42:58.200Z,17.20
2023-04-20T02:47:55.118Z,17.45
2023-04-20T02:52:48.486Z,14.73
2023-04-20T02:57:52.557Z,13.02
2023-04-20T03:02:49.980Z,12.50
2023-04-20T03:07:43.752Z,11.57
2023-04-20T03:12:39.133Z,12.65
2023-04-20T03:17:52.599Z,11.10
2023-04-20T03:22:46.593Z,10.07
2023-04-20T03:27:40.442Z,10.32
2023-04-20T03:32:38.544Z,11.07
2023-04-20T03:37:33.412Z,9.70
2023-04-20T03:42:26.779Z,10.35
2023-04-20T03:47:20.953Z,11.48
2023-04-20T03:52:14.142Z,13.18
2023-04-20T03:57:09.070Z,13.05
2023-04-20T04:02:02.741Z,13.50
2023-04-20T04:06:56.349Z,12.15
2023-04-20T04:11:50.389Z,14.80
2023-04-20T04:16:45.031Z,13.63
2023-04-20T04:21:39.547Z,13.75
2023-04-20T04:26:33.722Z,14.35
2023-04-20T04:31:27.733Z,14.82
2023-04-20T04:36:29.575Z,13.55
2023-04-20T04:41:25.707Z,14.05
2023-04-20T04:46:25.719Z,14.55
2023-04-20T04:51:19.138Z,12.18
2023-04-20T04:56:14.428Z,12.45
2023-04-20T05:01:07.634Z,13.60
2023-04-20T05:06:01.327Z,12.77
2023-04-20T05:10:54.607Z,13.85
2023-04-20T05:15:49.370Z,16.05
2023-04-20T05:20:42.636Z,13.52
2023-04-20T05:25:36.517Z,12.48
2023-04-20T05:30:29.723Z,13.35
2023-04-20T05:35:24.315Z,13.32
2023-04-20T05:40:17.758Z,12.30
2023-04-20T05:45:12.805Z,11.73
2023-04-20T05:50:07.096Z,13.63
2023-04-20T05:55:03.954Z,12.05
2023-04-20T05:59:57.229Z,12.23
2023-04-20T06:04:50.707Z,11.73
2023-04-20T06:09:43.975Z,11.27
2023-04-20T06:14:40.189Z,11.27
2023-04-20T06:19:33.405Z,11.55
2023-04-20T06:24:28.030Z,11.70
2023-04-20T06:29:21.236Z,10.52
2023-04-20T06:34:18.966Z,11.55
2023-04-20T06:39:14.477Z,11.48
2023-04-20T06:44:07.824Z,11.35
2023-04-20T06:49:01.051Z,10.95
2023-04-20T06:53:55.747Z,10.75
2023-04-20T06:58:48.992Z,10.25
2023-04-20T07:03:42.324Z,11.10
2023-04-20T07:08:38.442Z,12.05
2023-04-20T07:13:34.058Z,10.73
2023-04-20T07:18:27.222Z,12.23
2023-04-20T07:23:20.334Z,11.68
2023-04-20T07:28:13.535Z,10.52
2023-04-20T07:33:09.493Z,10.93
2023-04-20T07:38:02.765Z,11.77
2023-04-20T07:42:56.186Z,10.93
2023-04-20T07:47:51.565Z,14.05
2023-04-20T07:52:50.547Z,15.68
2023-04-20T07:57:43.740Z,14.18
2023-04-20T08:02:37.058Z,11.88
2023-04-20T08:07:30.355Z,9.95
2023-04-20T08:12:28.218Z,11.63
2023-04-20T08:17:21.525Z,12.48
2023-04-20T08:22:14.770Z,11.65
2023-04-20T08:27:09.719Z,12.60
2023-04-20T08:32:05.539Z,10.63
2023-04-20T08:36:58.675Z,11.07
2023-04-20T08:41:57.583Z,10.80
2023-04-20T08:46:54.925Z,11.48
2023-04-20T08:51:52.872Z,12.63
2023-04-20T08:56:47.439Z,10.95
2023-04-20T09:01:41.942Z,10.32
2023-04-20T09:06:36.193Z,11.80
2023-04-20T09:11:30.935Z,10.02
2023-04-20T09:16:24.492Z,10.25
2023-04-20T09:21:17.817Z,9.50
2023-04-20T09:26:26.176Z,10.13
2023-04-20T09:31:22.064Z,10.00
2023-04-20T09:36:21.596Z,10.13
2023-04-20T09:41:19.453Z,9.77
2023-04-20T09:46:13.570Z,10.35
2023-04-20T09:51:08.791Z,11.20
2023-04-20T09:56:07.620Z,10.38
2023-04-20T10:01:01.091Z,10.00
2023-04-20T10:05:55.889Z,10.70
2023-04-20T10:10:52.691Z,10.52
2023-04-20T10:15:48.592Z,10.05
2023-04-20T10:20:47.282Z,9.18
2023-04-20T10:26:02.890Z,8.90
2023-04-20T10:30:59.296Z,8.73
2023-04-20T10:35:55.450Z,8.25
2023-04-20T10:40:49.253Z,9.57
2023-04-20T10:45:44.087Z,8.82
2023-04-20T10:50:41.510Z,6.80
2023-04-20T10:55:38.133Z,6.40
2023-04-20T11:00:34.330Z,6.78
2023-04-20T11:05:29.143Z,6.93
2023-04-20T11:10:24.352Z,7.00
2023-04-20T11:15:17.988Z,5.97
2023-04-20T11:20:16.484Z,6.35
2023-04-20T11:25:12.887Z,5.75
2023-04-20T11:30:12.085Z,5.60
2023-04-20T11:35:07.913Z,5.28
2023-04-20T11:40:01.946Z,4.72
2023-04-20T11:44:57.034Z,4.32
2023-04-20T11:49:50.964Z,3.47
2023-04-20T11:54:44.290Z,4.30
2023-04-20T11:59:37.732Z,4.45
2023-04-20T12:04:33.409Z,4.18
2023-04-20T12:09:27.145Z,4.10
2023-04-20T12:14:20.474Z,4.28
2023-04-20T12:19:15.610Z,4.13
2023-04-20T12:24:10.344Z,4.60
2023-04-20T12:29:03.573Z,5.28
2023-04-20T12:33:56.820Z,7.75
2023-04-20T12:38:53.926Z,5.03
2023-04-20T12:43:48.898Z,5.78
2023-04-20T12:48:42.624Z,6.10
2023-04-20T12:53:35.854Z,6.90
2023-04-20T12:58:29.067Z,7.15
2023-04-20T13:03:23.877Z,8.60
2023-04-20T13:08:17.293Z,7.97
2023-04-20T13:13:11.714Z,7.38
2023-04-20T13:18:05.375Z,8.27
2023-04-20T13:23:01.589Z,8.20
2023-04-20T13:27:55.500Z,9.23
2023-04-20T13:32:48.939Z,10.65
2023-04-20T13:37:43.143Z,6.65
2023-04-20T13:42:38.048Z,5.78
2023-04-20T13:47:33.504Z,4.70
2023-04-20T13:52:26.726Z,3.22
2023-04-20T13:57:19.962Z,3.20
2023-04-20T14:02:14.646Z,4.18
2023-04-20T14:07:08.112Z,3.47
2023-04-20T14:12:02.403Z,3.45
2023-04-20T14:16:57.799Z,3.83
2023-04-20T14:21:55.405Z,4.00
2023-04-20T14:26:48.630Z,4.50
2023-04-20T14:31:41.944Z,3.45
2023-04-20T14:36:35.259Z,3.00
2023-04-20T14:41:33.571Z,2.65
2023-04-20T14:46:29.272Z,2.60
2023-04-20T14:51:22.482Z,3.80
2023-04-20T14:56:15.695Z,3.42
2023-04-20T15:01:11.734Z,3.45
2023-04-20T15:06:05.083Z,3.10
2023-04-20T15:10:58.666Z,3.05
2023-04-20T15:15:55.012Z,4.03
2023-04-20T15:20:53.664Z,4.30
2023-04-20T15:25:46.917Z,2.80
2023-04-20T15:30:42.633Z,3.38
2023-04-20T15:35:36.227Z,3.00
2023-04-20T15:40:30.861Z,3.33
2023-04-20T15:45:24.250Z,3.95
2023-04-20T15:50:20.873Z,3.00
2023-04-20T15:55:14.162Z,2.72
2023-04-20T16:00:11.286Z,4.05
2023-04-20T16:05:05.067Z,4.40
2023-04-20T16:09:58.211Z,6.05
2023-04-20T16:14:53.920Z,6.18
2023-04-20T16:19:48.938Z,4.80
2023-04-20T16:24:42.588Z,6.43
2023-04-20T16:29:36.089Z,8.68
2023-04-20T16:34:30.633Z,9.75
2023-04-20T16:39:25.499Z,9.65
2023-04-20T16:44:19.103Z,17.77
2023-04-20T16:49:13.763Z,13.00
2023-04-20T16:54:06.981Z,9.20
2023-04-20T16:59:01.879Z,7.72
2023-04-20T17:03:55.317Z,10.38
2023-04-20T17:08:49.521Z,10.70
2023-04-20T17:13:42.911Z,8.90
2023-04-20T17:18:41.223Z,8.52
2023-04-20T17:23:38.306Z,8.75
2023-04-20T17:28:31.798Z,11.65
2023-04-20T17:33:25.248Z,8.55
2023-04-20T17:38:20.100Z,7.35
2023-04-20T17:43:13.327Z,7.68
2023-04-20T17:48:07.442Z,9.13
2023-04-20T17:53:06.431Z,7.38
2023-04-20T17:58:01.663Z,8.77
2023-04-20T18:02:55.247Z,10.52
2023-04-20T18:07:48.816Z,7.63
2023-04-20T18:12:42.421Z,6.47
2023-04-20T18:17:37.305Z,6.05
2023-04-20T18:22:30.580Z,4.72
2023-04-20T18:27:25.770Z,4.70
2023-04-20T18:32:19.304Z,4.72
2023-04-20T18:37:16.828Z,4.60
2023-04-20T18:42:12.458Z,5.68
2023-04-20T18:47:05.893Z,4.85
2023-04-20T18:52:05.458Z,4.53
2023-04-20T18:57:00.166Z,4.15
2023-04-20T19:01:53.544Z,4.05
2023-04-20T19:06:46.940Z,4.22
2023-04-20T19:11:49.046Z,4.68
2023-04-20T19:16:43.661Z,5.07
2023-04-20T19:21:37.155Z,5.90
2023-04-20T19:26:30.430Z,5.95
2023-04-20T19:31:23.769Z,7.78
2023-04-20T19:36:19.232Z,5.40
2023-04-20T19:41:12.411Z,5.22
2023-04-20T19:46:09.618Z,5.07
2023-04-20T19:51:05.797Z,5.35
2023-04-20T19:56:00.592Z,5.55
2023-04-20T20:00:55.101Z,5.25
2023-04-20T20:05:48.400Z,5.60
2023-04-20T20:10:41.932Z,5.50
2023-04-20T20:15:41.979Z,5.63
2023-04-20T20:20:37.888Z,5.55
2023-04-20T20:25:31.977Z,5.63
2023-04-20T20:30:26.131Z,5.60
2023-04-20T20:35:21.400Z,6.25
2023-04-20T20:40:15.489Z,6.70
2023-04-20T20:45:12.581Z,6.13
2023-04-20T20:50:09.585Z,5.25
2023-04-20T20:55:04.618Z,4.75
2023-04-20T21:00:00.432Z,6.22
2023-04-20T21:04:53.775Z,5.32
2023-04-20T21:09:47.056Z,6.13
2023-04-20T21:14:43.330Z,5.22
2023-04-20T21:19:36.513Z,5.80
2023-04-20T21:24:30.172Z,5.93
2023-04-20T21:29:23.599Z,5.75
2023-04-20T21:34:18.292Z,5.10
2023-04-20T21:39:17.268Z,4.82
2023-04-20T21:44:13.251Z,5.10
2023-04-20T21:49:09.399Z,4.95
2023-04-20T21:54:04.197Z,4.90
2023-04-20T21:58:57.630Z,5.10
2023-04-20T22:04:09.049Z,5.03
2023-04-20T22:09:08.233Z,4.85
2023-04-20T22:14:01.549Z,5.03
2023-04-20T22:18:54.718Z,4.95
2023-04-20T22:23:47.762Z,4.90
2023-04-20T22:28:42.525Z,5.07
2023-04-20T22:33:36.444Z,4.93
2023-04-20T22:38:29.706Z,4.50
2023-04-20T22:43:23.501Z,5.18
2023-04-20T22:48:20.814Z,4.43
2023-04-20T22:53:14.528Z,4.70
2023-04-20T22:58:07.738Z,4.70
2023-04-20T23:03:01.138Z,5.03
2023-04-20T23:07:56.955Z,4.63
2023-04-20T23:12:50.739Z,4.20
2023-04-20T23:17:43.981Z,4.40
2023-04-20T23:22:37.463Z,4.95
2023-04-20T23:27:32.029Z,5.30
2023-04-20T23:32:26.012Z,5.03
2023-04-20T23:37:19.241Z,6.05
2023-04-20T23:42:12.339Z,4.80
2023-04-20T23:47:09.894Z,5.50
2023-04-20T23:52:03.325Z,5.05
2023-04-20T23:56:57.022Z,5.50
